sensor_id;sensor_type;location;lat;lon;timestamp;P1;durP1;ratioP1;P2;durP2;ratioP2
75732;SDS011;64435;47.424;19.400;2022-11-18T00:01:06;37.58;;;19.67;;
75732;SDS011;64435;47.424;19.400;2022-11-18T00:03:33;41.42;;;18.95;;
75732;SDS011;64435;47.424;19.400;2022-11-18T00:05:59;42.10;;;20.63;;
75732;SDS011;64435;47.424;19.400;2022-11-18T00:08:24;38.65;;;19.45;;
75732;SDS011;64435;47.424;19.400;2022-11-18T00:10:50;39.60;;;19.70;;
75732;SDS011;64435;47.424;19.400;2022-11-18T00:13:16;35.67;;;17.77;;
75732;SDS011;64435;47.424;19.400;2022-11-18T00:16:01;35.42;;;18.25;;
75732;SDS011;64435;47.424;19.400;2022-11-18T00:18:30;36.85;;;19.87;;
75732;SDS011;64435;47.424;19.400;2022-11-18T00:20:59;37.37;;;19.80;;
75732;SDS011;64435;47.424;19.400;2022-11-18T00:23:28;41.22;;;18.80;;
75732;SDS011;64435;47.424;19.400;2022-11-18T00:25:54;39.42;;;19.02;;
75732;SDS011;64435;47.424;19.400;2022-11-18T00:28:19;39.53;;;18.47;;
75732;SDS011;64435;47.424;19.400;2022-11-18T00:30:45;39.47;;;18.87;;
75732;SDS011;64435;47.424;19.400;2022-11-18T00:33:10;74.53;;;20.37;;
75732;SDS011;64435;47.424;19.400;2022-11-18T00:35:35;55.80;;;18.13;;
75732;SDS011;64435;47.424;19.400;2022-11-18T00:38:01;90.55;;;19.35;;
75732;SDS011;64435;47.424;19.400;2022-11-18T00:40:26;63.97;;;19.53;;
75732;SDS011;64435;47.424;19.400;2022-11-18T00:42:51;57.40;;;19.63;;
75732;SDS011;64435;47.424;19.400;2022-11-18T00:45:21;85.10;;;18.67;;
75732;SDS011;64435;47.424;19.400;2022-11-18T00:47:47;65.43;;;18.33;;
75732;SDS011;64435;47.424;19.400;2022-11-18T00:50:12;83.40;;;17.77;;
75732;SDS011;64435;47.424;19.400;2022-11-18T00:52:38;56.93;;;17.33;;
75732;SDS011;64435;47.424;19.400;2022-11-18T00:55:03;72.37;;;19.13;;
75732;SDS011;64435;47.424;19.400;2022-11-18T00:57:29;67.85;;;18.50;;
75732;SDS011;64435;47.424;19.400;2022-11-18T00:59:54;85.17;;;20.13;;
75732;SDS011;64435;47.424;19.400;2022-11-18T01:02:20;75.47;;;18.73;;
75732;SDS011;64435;47.424;19.400;2022-11-18T01:04:45;75.63;;;18.03;;
75732;SDS011;64435;47.424;19.400;2022-11-18T01:07:10;67.25;;;18.58;;
75732;SDS011;64435;47.424;19.400;2022-11-18T01:09:36;91.37;;;19.33;;
75732;SDS011;64435;47.424;19.400;2022-11-18T01:12:01;96.63;;;19.40;;
75732;SDS011;64435;47.424;19.400;2022-11-18T01:14:45;77.53;;;18.42;;
75732;SDS011;64435;47.424;19.400;2022-11-18T01:17:11;83.53;;;18.53;;
75732;SDS011;64435;47.424;19.400;2022-11-18T01:19:37;97.05;;;18.98;;
75732;SDS011;64435;47.424;19.400;2022-11-18T01:22:02;93.37;;;19.23;;
75732;SDS011;64435;47.424;19.400;2022-11-18T01:24:28;76.20;;;21.50;;
75732;SDS011;64435;47.424;19.400;2022-11-18T01:26:54;76.75;;;19.67;;
75732;SDS011;64435;47.424;19.400;2022-11-18T01:29:20;98.73;;;21.60;;
75732;SDS011;64435;47.424;19.400;2022-11-18T01:31:45;76.17;;;19.73;;
75732;SDS011;64435;47.424;19.400;2022-11-18T01:34:11;77.00;;;19.33;;
75732;SDS011;64435;47.424;19.400;2022-11-18T01:36:36;77.87;;;19.40;;
75732;SDS011;64435;47.424;19.400;2022-11-18T01:39:02;60.67;;;20.27;;
75732;SDS011;64435;47.424;19.400;2022-11-18T01:41:27;54.28;;;19.40;;
75732;SDS011;64435;47.424;19.400;2022-11-18T01:46:23;72.18;;;19.75;;
75732;SDS011;64435;47.424;19.400;2022-11-18T01:48:52;62.80;;;19.60;;
75732;SDS011;64435;47.424;19.400;2022-11-18T01:51:26;63.87;;;19.05;;
75732;SDS011;64435;47.424;19.400;2022-11-18T01:53:56;63.97;;;19.90;;
75732;SDS011;64435;47.424;19.400;2022-11-18T01:56:25;56.03;;;18.58;;
75732;SDS011;64435;47.424;19.400;2022-11-18T01:59:05;64.82;;;19.10;;
75732;SDS011;64435;47.424;19.400;2022-11-18T02:01:32;55.87;;;17.90;;
75732;SDS011;64435;47.424;19.400;2022-11-18T02:03:58;55.63;;;17.65;;
75732;SDS011;64435;47.424;19.400;2022-11-18T02:06:23;50.03;;;16.17;;
75732;SDS011;64435;47.424;19.400;2022-11-18T02:08:49;56.73;;;15.83;;
75732;SDS011;64435;47.424;19.400;2022-11-18T02:11:14;59.45;;;17.17;;
75732;SDS011;64435;47.424;19.400;2022-11-18T02:13:59;78.67;;;15.83;;
75732;SDS011;64435;47.424;19.400;2022-11-18T02:16:39;63.92;;;15.60;;
75732;SDS011;64435;47.424;19.400;2022-11-18T02:19:14;49.95;;;14.80;;
75732;SDS011;64435;47.424;19.400;2022-11-18T02:24:47;44.47;;;14.98;;
75732;SDS011;64435;47.424;19.400;2022-11-18T02:30:24;66.20;;;13.85;;
75732;SDS011;64435;47.424;19.400;2022-11-18T02:32:52;46.90;;;13.10;;
75732;SDS011;64435;47.424;19.400;2022-11-18T02:38:00;45.60;;;13.70;;
75732;SDS011;64435;47.424;19.400;2022-11-18T02:40:32;41.50;;;12.25;;
75732;SDS011;64435;47.424;19.400;2022-11-18T02:43:03;38.80;;;12.10;;
75732;SDS011;64435;47.424;19.400;2022-11-18T02:45:30;38.03;;;11.60;;
75732;SDS011;64435;47.424;19.400;2022-11-18T02:47:58;44.63;;;12.30;;
75732;SDS011;64435;47.424;19.400;2022-11-18T02:50:28;48.35;;;13.80;;
75732;SDS011;64435;47.424;19.400;2022-11-18T02:52:56;66.53;;;13.52;;
75732;SDS011;64435;47.424;19.400;2022-11-18T02:55:22;50.80;;;12.07;;
75732;SDS011;64435;47.424;19.400;2022-11-18T02:57:49;51.20;;;12.00;;
75732;SDS011;64435;47.424;19.400;2022-11-18T03:00:16;53.58;;;12.43;;
75732;SDS011;64435;47.424;19.400;2022-11-18T03:02:45;35.97;;;12.43;;
75732;SDS011;64435;47.424;19.400;2022-11-18T03:05:17;38.73;;;13.27;;
75732;SDS011;64435;47.424;19.400;2022-11-18T03:07:47;40.83;;;13.05;;
75732;SDS011;64435;47.424;19.400;2022-11-18T03:10:16;48.47;;;12.43;;
75732;SDS011;64435;47.424;19.400;2022-11-18T03:12:53;42.70;;;11.85;;
75732;SDS011;64435;47.424;19.400;2022-11-18T03:15:33;35.83;;;12.32;;
75732;SDS011;64435;47.424;19.400;2022-11-18T03:20:44;34.22;;;11.95;;
75732;SDS011;64435;47.424;19.400;2022-11-18T03:23:21;38.08;;;11.48;;
75732;SDS011;64435;47.424;19.400;2022-11-18T03:26:04;37.92;;;11.05;;
75732;SDS011;64435;47.424;19.400;2022-11-18T03:28:35;46.65;;;12.07;;
75732;SDS011;64435;47.424;19.400;2022-11-18T03:34:27;40.53;;;12.90;;
75732;SDS011;64435;47.424;19.400;2022-11-18T03:36:58;40.72;;;12.30;;
75732;SDS011;64435;47.424;19.400;2022-11-18T03:39:25;39.15;;;12.05;;
75732;SDS011;64435;47.424;19.400;2022-11-18T03:42:27;47.00;;;11.80;;
75732;SDS011;64435;47.424;19.400;2022-11-18T03:45:04;44.40;;;12.83;;
75732;SDS011;64435;47.424;19.400;2022-11-18T03:47:36;46.33;;;11.95;;
75732;SDS011;64435;47.424;19.400;2022-11-18T03:50:23;44.42;;;12.65;;
75732;SDS011;64435;47.424;19.400;2022-11-18T03:52:50;39.75;;;12.65;;
75732;SDS011;64435;47.424;19.400;2022-11-18T03:55:17;48.30;;;13.43;;
75732;SDS011;64435;47.424;19.400;2022-11-18T04:00:35;51.33;;;14.80;;
75732;SDS011;64435;47.424;19.400;2022-11-18T04:03:02;39.38;;;13.05;;
75732;SDS011;64435;47.424;19.400;2022-11-18T04:05:29;40.77;;;11.93;;
75732;SDS011;64435;47.424;19.400;2022-11-18T04:07:58;41.05;;;12.57;;
75732;SDS011;64435;47.424;19.400;2022-11-18T04:13:19;39.00;;;12.25;;
75732;SDS011;64435;47.424;19.400;2022-11-18T04:15:48;45.73;;;12.20;;
75732;SDS011;64435;47.424;19.400;2022-11-18T04:18:14;34.30;;;11.98;;
75732;SDS011;64435;47.424;19.400;2022-11-18T04:20:39;38.63;;;12.67;;
75732;SDS011;64435;47.424;19.400;2022-11-18T04:23:05;41.60;;;12.07;;
75732;SDS011;64435;47.424;19.400;2022-11-18T04:25:31;45.50;;;12.53;;
75732;SDS011;64435;47.424;19.400;2022-11-18T04:27:56;37.33;;;12.50;;
75732;SDS011;64435;47.424;19.400;2022-11-18T04:30:21;36.23;;;11.87;;
75732;SDS011;64435;47.424;19.400;2022-11-18T04:32:47;47.03;;;13.17;;
75732;SDS011;64435;47.424;19.400;2022-11-18T04:35:13;37.00;;;13.00;;
75732;SDS011;64435;47.424;19.400;2022-11-18T04:37:39;39.50;;;12.02;;
75732;SDS011;64435;47.424;19.400;2022-11-18T04:40:04;35.37;;;12.50;;
75732;SDS011;64435;47.424;19.400;2022-11-18T04:42:30;48.35;;;12.37;;
75732;SDS011;64435;47.424;19.400;2022-11-18T04:44:55;47.50;;;12.33;;
75732;SDS011;64435;47.424;19.400;2022-11-18T04:47:21;40.58;;;13.10;;
75732;SDS011;64435;47.424;19.400;2022-11-18T04:49:46;36.57;;;11.90;;
75732;SDS011;64435;47.424;19.400;2022-11-18T04:52:12;35.97;;;12.53;;
75732;SDS011;64435;47.424;19.400;2022-11-18T04:54:38;39.67;;;12.55;;
75732;SDS011;64435;47.424;19.400;2022-11-18T04:57:03;44.47;;;12.80;;
75732;SDS011;64435;47.424;19.400;2022-11-18T04:59:28;38.83;;;13.57;;
75732;SDS011;64435;47.424;19.400;2022-11-18T05:01:54;44.90;;;14.00;;
75732;SDS011;64435;47.424;19.400;2022-11-18T05:04:21;40.35;;;12.43;;
75732;SDS011;64435;47.424;19.400;2022-11-18T05:06:49;43.47;;;12.37;;
75732;SDS011;64435;47.424;19.400;2022-11-18T05:09:14;47.45;;;12.13;;
75732;SDS011;64435;47.424;19.400;2022-11-18T05:11:40;47.00;;;12.77;;
75732;SDS011;64435;47.424;19.400;2022-11-18T05:14:25;50.97;;;13.65;;
75732;SDS011;64435;47.424;19.400;2022-11-18T05:16:51;46.42;;;13.15;;
75732;SDS011;64435;47.424;19.400;2022-11-18T05:19:17;44.55;;;12.35;;
75732;SDS011;64435;47.424;19.400;2022-11-18T05:21:42;38.17;;;12.93;;
75732;SDS011;64435;47.424;19.400;2022-11-18T05:24:08;45.33;;;13.30;;
75732;SDS011;64435;47.424;19.400;2022-11-18T05:26:33;43.50;;;12.30;;
75732;SDS011;64435;47.424;19.400;2022-11-18T05:28:59;33.90;;;13.30;;
75732;SDS011;64435;47.424;19.400;2022-11-18T05:31:24;39.97;;;13.53;;
75732;SDS011;64435;47.424;19.400;2022-11-18T05:33:49;38.93;;;12.60;;
75732;SDS011;64435;47.424;19.400;2022-11-18T05:36:16;36.17;;;12.80;;
75732;SDS011;64435;47.424;19.400;2022-11-18T05:38:42;36.28;;;12.07;;
75732;SDS011;64435;47.424;19.400;2022-11-18T05:41:08;46.78;;;12.13;;
75732;SDS011;64435;47.424;19.400;2022-11-18T05:43:34;31.50;;;12.00;;
75732;SDS011;64435;47.424;19.400;2022-11-18T05:46:00;43.95;;;14.13;;
75732;SDS011;64435;47.424;19.400;2022-11-18T05:48:26;45.23;;;12.90;;
75732;SDS011;64435;47.424;19.400;2022-11-18T05:50:52;35.85;;;13.68;;
75732;SDS011;64435;47.424;19.400;2022-11-18T05:53:18;41.85;;;13.85;;
75732;SDS011;64435;47.424;19.400;2022-11-18T05:55:54;37.97;;;12.95;;
75732;SDS011;64435;47.424;19.400;2022-11-18T05:58:22;45.67;;;14.43;;
75732;SDS011;64435;47.424;19.400;2022-11-18T06:00:48;35.92;;;13.07;;
75732;SDS011;64435;47.424;19.400;2022-11-18T06:03:16;38.80;;;12.70;;
75732;SDS011;64435;47.424;19.400;2022-11-18T06:05:45;44.25;;;14.43;;
75732;SDS011;64435;47.424;19.400;2022-11-18T06:08:10;48.97;;;18.40;;
75732;SDS011;64435;47.424;19.400;2022-11-18T06:10:36;51.37;;;19.27;;
75732;SDS011;64435;47.424;19.400;2022-11-18T06:13:05;49.65;;;16.85;;
75732;SDS011;64435;47.424;19.400;2022-11-18T06:15:37;38.63;;;13.60;;
75732;SDS011;64435;47.424;19.400;2022-11-18T06:20:31;38.15;;;13.62;;
75732;SDS011;64435;47.424;19.400;2022-11-18T06:22:58;33.65;;;13.43;;
75732;SDS011;64435;47.424;19.400;2022-11-18T06:25:25;37.17;;;14.40;;
75732;SDS011;64435;47.424;19.400;2022-11-18T06:27:50;37.77;;;13.67;;
75732;SDS011;64435;47.424;19.400;2022-11-18T06:30:16;36.50;;;14.82;;
75732;SDS011;64435;47.424;19.400;2022-11-18T06:32:42;36.07;;;13.03;;
75732;SDS011;64435;47.424;19.400;2022-11-18T06:35:08;43.67;;;15.00;;
75732;SDS011;64435;47.424;19.400;2022-11-18T06:37:34;34.60;;;13.20;;
75732;SDS011;64435;47.424;19.400;2022-11-18T06:39:59;31.80;;;12.47;;
75732;SDS011;64435;47.424;19.400;2022-11-18T06:42:27;35.00;;;13.25;;
75732;SDS011;64435;47.424;19.400;2022-11-18T06:45:11;28.17;;;12.07;;
75732;SDS011;64435;47.424;19.400;2022-11-18T06:47:37;26.58;;;12.37;;
75732;SDS011;64435;47.424;19.400;2022-11-18T06:50:02;28.90;;;13.03;;
75732;SDS011;64435;47.424;19.400;2022-11-18T06:52:28;30.80;;;13.80;;
75732;SDS011;64435;47.424;19.400;2022-11-18T06:54:53;33.10;;;13.87;;
75732;SDS011;64435;47.424;19.400;2022-11-18T06:57:19;31.17;;;11.97;;
75732;SDS011;64435;47.424;19.400;2022-11-18T06:59:44;33.53;;;13.33;;
75732;SDS011;64435;47.424;19.400;2022-11-18T07:02:09;32.53;;;13.23;;
75732;SDS011;64435;47.424;19.400;2022-11-18T07:04:35;32.33;;;12.77;;
75732;SDS011;64435;47.424;19.400;2022-11-18T07:07:03;27.80;;;12.90;;
75732;SDS011;64435;47.424;19.400;2022-11-18T07:09:29;27.98;;;12.07;;
75732;SDS011;64435;47.424;19.400;2022-11-18T07:11:55;28.67;;;12.53;;
75732;SDS011;64435;47.424;19.400;2022-11-18T07:14:20;32.83;;;12.95;;
75732;SDS011;64435;47.424;19.400;2022-11-18T07:16:46;30.93;;;13.03;;
75732;SDS011;64435;47.424;19.400;2022-11-18T07:19:12;28.07;;;11.53;;
75732;SDS011;64435;47.424;19.400;2022-11-18T07:21:37;29.05;;;12.15;;
75732;SDS011;64435;47.424;19.400;2022-11-18T07:24:04;31.87;;;13.00;;
75732;SDS011;64435;47.424;19.400;2022-11-18T07:26:31;29.00;;;12.77;;
75732;SDS011;64435;47.424;19.400;2022-11-18T07:28:56;29.48;;;12.70;;
75732;SDS011;64435;47.424;19.400;2022-11-18T07:31:22;30.40;;;11.97;;
75732;SDS011;64435;47.424;19.400;2022-11-18T07:33:48;28.43;;;12.13;;
75732;SDS011;64435;47.424;19.400;2022-11-18T07:36:15;26.45;;;12.13;;
75732;SDS011;64435;47.424;19.400;2022-11-18T07:38:41;28.95;;;12.90;;
75732;SDS011;64435;47.424;19.400;2022-11-18T07:41:08;31.60;;;13.00;;
75732;SDS011;64435;47.424;19.400;2022-11-18T07:43:38;29.50;;;12.10;;
75732;SDS011;64435;47.424;19.400;2022-11-18T07:46:20;33.97;;;12.98;;
75732;SDS011;64435;47.424;19.400;2022-11-18T07:48:50;29.25;;;12.65;;
75732;SDS011;64435;47.424;19.400;2022-11-18T07:51:17;31.93;;;13.27;;
75732;SDS011;64435;47.424;19.400;2022-11-18T07:53:44;34.88;;;14.20;;
75732;SDS011;64435;47.424;19.400;2022-11-18T07:56:10;33.17;;;14.20;;
75732;SDS011;64435;47.424;19.400;2022-11-18T07:58:36;38.63;;;14.85;;
75732;SDS011;64435;47.424;19.400;2022-11-18T08:03:37;36.63;;;13.18;;
75732;SDS011;64435;47.424;19.400;2022-11-18T08:06:03;31.37;;;13.60;;
75732;SDS011;64435;47.424;19.400;2022-11-18T08:08:30;30.40;;;13.15;;
75732;SDS011;64435;47.424;19.400;2022-11-18T08:10:55;29.80;;;13.60;;
75732;SDS011;64435;47.424;19.400;2022-11-18T08:13:22;31.90;;;13.20;;
75732;SDS011;64435;47.424;19.400;2022-11-18T08:15:48;27.98;;;13.27;;
75732;SDS011;64435;47.424;19.400;2022-11-18T08:18:13;32.73;;;13.20;;
75732;SDS011;64435;47.424;19.400;2022-11-18T08:20:38;31.60;;;13.03;;
75732;SDS011;64435;47.424;19.400;2022-11-18T08:23:04;32.10;;;13.60;;
75732;SDS011;64435;47.424;19.400;2022-11-18T08:25:29;29.13;;;12.50;;
75732;SDS011;64435;47.424;19.400;2022-11-18T08:27:55;27.33;;;12.40;;
75732;SDS011;64435;47.424;19.400;2022-11-18T08:30:20;32.10;;;12.90;;
75732;SDS011;64435;47.424;19.400;2022-11-18T08:32:45;29.40;;;13.57;;
75732;SDS011;64435;47.424;19.400;2022-11-18T08:35:11;31.13;;;13.93;;
75732;SDS011;64435;47.424;19.400;2022-11-18T08:37:36;32.30;;;13.37;;
75732;SDS011;64435;47.424;19.400;2022-11-18T08:40:02;30.93;;;14.00;;
75732;SDS011;64435;47.424;19.400;2022-11-18T08:42:28;30.80;;;13.30;;
75732;SDS011;64435;47.424;19.400;2022-11-18T08:44:53;30.13;;;13.47;;
75732;SDS011;64435;47.424;19.400;2022-11-18T08:47:18;33.63;;;15.23;;
75732;SDS011;64435;47.424;19.400;2022-11-18T08:49:44;31.43;;;14.53;;
75732;SDS011;64435;47.424;19.400;2022-11-18T08:52:09;31.63;;;14.53;;
75732;SDS011;64435;47.424;19.400;2022-11-18T08:54:35;33.80;;;14.73;;
75732;SDS011;64435;47.424;19.400;2022-11-18T08:57:00;34.20;;;14.67;;
75732;SDS011;64435;47.424;19.400;2022-11-18T08:59:26;35.43;;;13.27;;
75732;SDS011;64435;47.424;19.400;2022-11-18T09:01:51;31.92;;;13.35;;
75732;SDS011;64435;47.424;19.400;2022-11-18T09:04:16;32.87;;;14.40;;
75732;SDS011;64435;47.424;19.400;2022-11-18T09:06:42;32.90;;;13.70;;
75732;SDS011;64435;47.424;19.400;2022-11-18T09:09:07;34.33;;;14.77;;
75732;SDS011;64435;47.424;19.400;2022-11-18T09:11:33;32.33;;;14.20;;
75732;SDS011;64435;47.424;19.400;2022-11-18T09:13:59;30.65;;;13.32;;
75732;SDS011;64435;47.424;19.400;2022-11-18T09:16:27;28.87;;;13.43;;
75732;SDS011;64435;47.424;19.400;2022-11-18T09:18:54;29.13;;;12.97;;
75732;SDS011;64435;47.424;19.400;2022-11-18T09:21:20;31.50;;;12.90;;
75732;SDS011;64435;47.424;19.400;2022-11-18T09:23:45;26.37;;;11.85;;
75732;SDS011;64435;47.424;19.400;2022-11-18T09:26:12;28.33;;;12.10;;
75732;SDS011;64435;47.424;19.400;2022-11-18T09:28:39;26.10;;;12.07;;
75732;SDS011;64435;47.424;19.400;2022-11-18T09:31:05;24.30;;;11.47;;
75732;SDS011;64435;47.424;19.400;2022-11-18T09:33:32;24.37;;;11.50;;
75732;SDS011;64435;47.424;19.400;2022-11-18T09:35:58;20.73;;;10.03;;
75732;SDS011;64435;47.424;19.400;2022-11-18T09:38:24;22.30;;;9.90;;
75732;SDS011;64435;47.424;19.400;2022-11-18T09:46:00;21.97;;;10.17;;
75732;SDS011;64435;47.424;19.400;2022-11-18T09:48:29;22.48;;;9.27;;
75732;SDS011;64435;47.424;19.400;2022-11-18T09:51:13;20.60;;;9.63;;
75732;SDS011;64435;47.424;19.400;2022-11-18T09:53:43;17.90;;;8.50;;
75732;SDS011;64435;47.424;19.400;2022-11-18T09:56:15;15.32;;;7.93;;
75732;SDS011;64435;47.424;19.400;2022-11-18T09:58:40;15.20;;;7.80;;
75732;SDS011;64435;47.424;19.400;2022-11-18T10:01:09;18.02;;;7.78;;
75732;SDS011;64435;47.424;19.400;2022-11-18T10:03:37;16.00;;;7.87;;
75732;SDS011;64435;47.424;19.400;2022-11-18T10:06:03;17.92;;;7.75;;
75732;SDS011;64435;47.424;19.400;2022-11-18T10:11:26;15.63;;;6.70;;
75732;SDS011;64435;47.424;19.400;2022-11-18T10:16:58;14.90;;;7.95;;
75732;SDS011;64435;47.424;19.400;2022-11-18T10:19:36;17.65;;;6.85;;
75732;SDS011;64435;47.424;19.400;2022-11-18T10:24:56;18.57;;;8.37;;
75732;SDS011;64435;47.424;19.400;2022-11-18T10:27:25;15.05;;;7.22;;
75732;SDS011;64435;47.424;19.400;2022-11-18T10:29:57;15.43;;;7.82;;
75732;SDS011;64435;47.424;19.400;2022-11-18T10:32:25;18.90;;;7.50;;
75732;SDS011;64435;47.424;19.400;2022-11-18T10:34:52;15.20;;;6.83;;
75732;SDS011;64435;47.424;19.400;2022-11-18T10:37:23;14.90;;;7.78;;
75732;SDS011;64435;47.424;19.400;2022-11-18T10:40:01;13.95;;;6.95;;
75732;SDS011;64435;47.424;19.400;2022-11-18T10:48:15;14.27;;;7.20;;
75732;SDS011;64435;47.424;19.400;2022-11-18T10:50:44;15.13;;;6.90;;
75732;SDS011;64435;47.424;19.400;2022-11-18T10:58:24;15.97;;;7.40;;
75732;SDS011;64435;47.424;19.400;2022-11-18T11:00:50;14.13;;;6.87;;
75732;SDS011;64435;47.424;19.400;2022-11-18T11:06:05;15.15;;;7.30;;
75732;SDS011;64435;47.424;19.400;2022-11-18T11:09:02;13.98;;;6.30;;
75732;SDS011;64435;47.424;19.400;2022-11-18T11:14:27;12.17;;;6.47;;
75732;SDS011;64435;47.424;19.400;2022-11-18T11:22:25;11.75;;;5.70;;
75732;SDS011;64435;47.424;19.400;2022-11-18T11:24:51;10.30;;;4.80;;
75732;SDS011;64435;47.424;19.400;2022-11-18T11:29:57;9.63;;;4.82;;
75732;SDS011;64435;47.424;19.400;2022-11-18T11:41:11;15.97;;;8.30;;
75732;SDS011;64435;47.424;19.400;2022-11-18T11:49:17;10.07;;;4.90;;
75732;SDS011;64435;47.424;19.400;2022-11-18T11:51:53;10.63;;;5.60;;
75732;SDS011;64435;47.424;19.400;2022-11-18T12:00:16;8.10;;;4.22;;
75732;SDS011;64435;47.424;19.400;2022-11-18T12:03:01;7.47;;;3.90;;
75732;SDS011;64435;47.424;19.400;2022-11-18T12:05:35;8.60;;;4.15;;
75732;SDS011;64435;47.424;19.400;2022-11-18T12:08:22;9.37;;;3.77;;
75732;SDS011;64435;47.424;19.400;2022-11-18T12:13:47;10.93;;;5.22;;
75732;SDS011;64435;47.424;19.400;2022-11-18T12:32:01;9.43;;;3.87;;
75732;SDS011;64435;47.424;19.400;2022-11-18T12:36:54;8.65;;;3.20;;
75732;SDS011;64435;47.424;19.400;2022-11-18T12:44:36;8.20;;;4.00;;
75732;SDS011;64435;47.424;19.400;2022-11-18T12:47:04;9.20;;;4.18;;
75732;SDS011;64435;47.424;19.400;2022-11-18T12:54:55;5.27;;;2.37;;
75732;SDS011;64435;47.424;19.400;2022-11-18T12:57:23;5.80;;;2.45;;
75732;SDS011;64435;47.424;19.400;2022-11-18T12:59:52;5.10;;;2.15;;
75732;SDS011;64435;47.424;19.400;2022-11-18T13:02:20;7.78;;;2.60;;
75732;SDS011;64435;47.424;19.400;2022-11-18T13:07:31;7.10;;;2.53;;
75732;SDS011;64435;47.424;19.400;2022-11-18T13:10:21;10.88;;;3.20;;
75732;SDS011;64435;47.424;19.400;2022-11-18T13:12:48;12.80;;;4.80;;
75732;SDS011;64435;47.424;19.400;2022-11-18T13:15:14;12.20;;;4.45;;
75732;SDS011;64435;47.424;19.400;2022-11-18T13:18:13;7.97;;;3.33;;
75732;SDS011;64435;47.424;19.400;2022-11-18T13:20:41;5.90;;;2.80;;
75732;SDS011;64435;47.424;19.400;2022-11-18T13:33:50;6.13;;;2.70;;
75732;SDS011;64435;47.424;19.400;2022-11-18T13:36:22;8.32;;;3.50;;
75732;SDS011;64435;47.424;19.400;2022-11-18T13:41:25;7.30;;;3.45;;
75732;SDS011;64435;47.424;19.400;2022-11-18T13:46:41;7.28;;;3.42;;
75732;SDS011;64435;47.424;19.400;2022-11-18T13:49:09;6.80;;;3.00;;
75732;SDS011;64435;47.424;19.400;2022-11-18T13:51:38;6.78;;;3.42;;
75732;SDS011;64435;47.424;19.400;2022-11-18T13:54:04;6.37;;;3.43;;
75732;SDS011;64435;47.424;19.400;2022-11-18T13:56:29;7.47;;;3.67;;
75732;SDS011;64435;47.424;19.400;2022-11-18T13:58:57;7.20;;;3.50;;
75732;SDS011;64435;47.424;19.400;2022-11-18T14:01:31;7.82;;;3.62;;
75732;SDS011;64435;47.424;19.400;2022-11-18T14:03:58;7.30;;;3.50;;
75732;SDS011;64435;47.424;19.400;2022-11-18T14:06:39;7.57;;;3.50;;
75732;SDS011;64435;47.424;19.400;2022-11-18T14:09:14;6.83;;;3.43;;
75732;SDS011;64435;47.424;19.400;2022-11-18T14:11:41;7.43;;;3.22;;
75732;SDS011;64435;47.424;19.400;2022-11-18T14:14:11;11.07;;;4.93;;
75732;SDS011;64435;47.424;19.400;2022-11-18T14:16:39;11.88;;;6.20;;
75732;SDS011;64435;47.424;19.400;2022-11-18T14:19:05;8.93;;;4.72;;
75732;SDS011;64435;47.424;19.400;2022-11-18T14:21:34;15.93;;;7.90;;
75732;SDS011;64435;47.424;19.400;2022-11-18T14:24:02;15.57;;;7.30;;
75732;SDS011;64435;47.424;19.400;2022-11-18T14:26:32;10.45;;;5.15;;
75732;SDS011;64435;47.424;19.400;2022-11-18T14:29:02;12.77;;;6.20;;
75732;SDS011;64435;47.424;19.400;2022-11-18T14:31:38;7.65;;;3.67;;
75732;SDS011;64435;47.424;19.400;2022-11-18T14:34:19;6.77;;;3.23;;
75732;SDS011;64435;47.424;19.400;2022-11-18T14:36:47;6.50;;;2.78;;
75732;SDS011;64435;47.424;19.400;2022-11-18T14:39:30;6.67;;;3.33;;
75732;SDS011;64435;47.424;19.400;2022-11-18T14:41:56;8.80;;;3.53;;
75732;SDS011;64435;47.424;19.400;2022-11-18T14:44:23;6.82;;;3.78;;
75732;SDS011;64435;47.424;19.400;2022-11-18T14:46:51;8.85;;;4.43;;
75732;SDS011;64435;47.424;19.400;2022-11-18T14:49:21;9.40;;;4.97;;
75732;SDS011;64435;47.424;19.400;2022-11-18T14:51:48;12.40;;;7.07;;
75732;SDS011;64435;47.424;19.400;2022-11-18T14:54:15;13.80;;;7.07;;
75732;SDS011;64435;47.424;19.400;2022-11-18T14:56:41;12.43;;;6.70;;
75732;SDS011;64435;47.424;19.400;2022-11-18T14:59:11;15.07;;;6.97;;
75732;SDS011;64435;47.424;19.400;2022-11-18T15:01:38;15.15;;;7.97;;
75732;SDS011;64435;47.424;19.400;2022-11-18T15:04:04;14.00;;;5.97;;
75732;SDS011;64435;47.424;19.400;2022-11-18T15:06:29;13.77;;;5.32;;
75732;SDS011;64435;47.424;19.400;2022-11-18T15:08:54;15.10;;;5.40;;
75732;SDS011;64435;47.424;19.400;2022-11-18T15:11:20;14.90;;;6.73;;
75732;SDS011;64435;47.424;19.400;2022-11-18T15:13:48;16.17;;;7.10;;
75732;SDS011;64435;47.424;19.400;2022-11-18T15:16:17;17.20;;;6.53;;
75732;SDS011;64435;47.424;19.400;2022-11-18T15:18:54;14.87;;;6.20;;
75732;SDS011;64435;47.424;19.400;2022-11-18T15:21:21;15.13;;;7.40;;
75732;SDS011;64435;47.424;19.400;2022-11-18T15:23:46;18.12;;;9.73;;
75732;SDS011;64435;47.424;19.400;2022-11-18T15:26:22;17.77;;;10.17;;
75732;SDS011;64435;47.424;19.400;2022-11-18T15:28:50;20.27;;;9.93;;
75732;SDS011;64435;47.424;19.400;2022-11-18T15:31:17;21.87;;;11.93;;
75732;SDS011;64435;47.424;19.400;2022-11-18T15:33:43;15.40;;;9.32;;
75732;SDS011;64435;47.424;19.400;2022-11-18T15:36:10;15.10;;;7.30;;
75732;SDS011;64435;47.424;19.400;2022-11-18T15:38:37;13.62;;;6.87;;
75732;SDS011;64435;47.424;19.400;2022-11-18T15:41:02;16.83;;;8.60;;
75732;SDS011;64435;47.424;19.400;2022-11-18T15:43:31;18.48;;;8.98;;
75732;SDS011;64435;47.424;19.400;2022-11-18T15:45:57;15.23;;;7.77;;
75732;SDS011;64435;47.424;19.400;2022-11-18T15:48:22;20.25;;;8.88;;
75732;SDS011;64435;47.424;19.400;2022-11-18T15:50:48;25.70;;;11.63;;
75732;SDS011;64435;47.424;19.400;2022-11-18T15:53:13;44.07;;;20.10;;
75732;SDS011;64435;47.424;19.400;2022-11-18T15:55:39;54.95;;;25.33;;
75732;SDS011;64435;47.424;19.400;2022-11-18T15:58:06;28.20;;;14.20;;
75732;SDS011;64435;47.424;19.400;2022-11-18T16:00:31;16.42;;;8.68;;
75732;SDS011;64435;47.424;19.400;2022-11-18T16:02:56;12.87;;;6.37;;
75732;SDS011;64435;47.424;19.400;2022-11-18T16:05:22;19.07;;;8.57;;
75732;SDS011;64435;47.424;19.400;2022-11-18T16:07:48;28.17;;;14.80;;
75732;SDS011;64435;47.424;19.400;2022-11-18T16:10:13;23.40;;;12.32;;
75732;SDS011;64435;47.424;19.400;2022-11-18T16:12:57;13.18;;;7.28;;
75732;SDS011;64435;47.424;19.400;2022-11-18T16:15:22;11.30;;;6.73;;
75732;SDS011;64435;47.424;19.400;2022-11-18T16:18:07;13.27;;;6.62;;
75732;SDS011;64435;47.424;19.400;2022-11-18T16:20:32;31.47;;;12.73;;
75732;SDS011;64435;47.424;19.400;2022-11-18T16:22:58;26.77;;;11.82;;
75732;SDS011;64435;47.424;19.400;2022-11-18T16:25:23;19.47;;;9.60;;
75732;SDS011;64435;47.424;19.400;2022-11-18T16:27:49;21.73;;;11.43;;
75732;SDS011;64435;47.424;19.400;2022-11-18T16:30:14;34.22;;;16.55;;
75732;SDS011;64435;47.424;19.400;2022-11-18T16:33:09;54.00;;;21.97;;
75732;SDS011;64435;47.424;19.400;2022-11-18T16:35:34;51.45;;;29.92;;
75732;SDS011;64435;47.424;19.400;2022-11-18T16:38:00;28.40;;;13.80;;